KVPS/VPS METAR and TAF weather

Enter ICAO airport designator
Station Type Date Time Source
KVPS METAR 2019/08/24 07:56 UTC NOAA

KVPS 240756Z AUTO 00000KT 10SM CLR 25/24 A2996 RMK AO2 SLP151 T02460241 $


Station Type Date Time Source
KVPS Decoded METAR 2019/08/24 07:56 UTC NOAA

Station name not available
Aug 24, 2019 - 03:56 AM EDT / 2019.08.24 0756 UTC
Wind: Calm:0
Visibility: 10 mile(s):0
Sky conditions: clear
Temperature: 76.3 F (24.6 C)
Dew Point: 75.4 F (24.1 C)
Relative Humidity: 97%
Pressure (altimeter): 29.96 in. Hg (1014 hPa)
ob: KVPS 240756Z AUTO 00000KT 10SM CLR 25/24 A2996 RMK AO2 SLP151 T02460241
cycle: 8

Station Type Date Time Source
KVPS TAF 2019/08/24 01:09 UTC NOAA

TAF TAF KVPS 240100Z 2401/2507 30003KT 9999 FEW025 SCT120 BKN200 QNH2998INS
BECMG 2414/2415 25006KT 9999 FEW025 SCT250 QNH2996INS
BECMG 2417/2418 19010KT 9999 -SHRA VCTS SCT025CB SCT055 BKN200 QNH2994INS
BECMG 2422/2423 26008KT 9999 NSW FEW025 SCT100 BKN200 QNH2992INS
BECMG 2505/2506 30006KT 9000 BR FEW015 FEW045 BKN200 QNH2990INS TX32/2419Z TN25/2411Z

Example: see airport list